Time;durP1;ratioP1;P1;durP2;ratioP2;P2;SDS_P1;SDS_P2;PMS_P1;PMS_P2;Temp;Humidity;BMP_temperature;BMP_pressure;BME280_temperature;BME280_humidity;BME280_pressure;Samples;Min_cycle;Max_cycle;Signal;HPM_P1;HPM_P2
2023/05/09 00:01:10;;;;;;;4.13;2.50;;;;;;;13.17;75.46;94225.28;5127820;28;20020;-81
2023/05/09 00:03:36;;;;;;;5.35;2.85;;;;;;;13.22;76.25;94232.34;5127450;28;20050;-81
2023/05/09 00:06:01;;;;;;;4.07;2.45;;;;;;;13.17;75.85;94224.50;5126826;28;20326;-81
2023/05/09 00:08:27;;;;;;;4.18;2.40;;;;;;;13.10;74.05;94218.84;5127588;28;20020;-81
2023/05/09 00:10:52;;;;;;;4.72;2.65;;;;;;;12.99;72.64;94213.84;5127605;28;20153;-81
2023/05/09 00:13:18;;;;;;;3.17;2.22;;;;;;;13.00;73.00;94215.38;5127542;28;20102;-81
2023/05/09 00:15:45;;;;;;;4.50;2.28;;;;;;;13.03;72.50;94214.75;5127376;28;20090;-82
2023/05/09 00:18:11;;;;;;;7.78;2.60;;;;;;;13.05;73.18;94220.59;5127062;28;20019;-81
2023/05/09 00:20:39;;;;;;;4.15;2.47;;;;;;;13.08;74.26;94219.16;5127205;28;20015;-81
2023/05/09 00:23:06;;;;;;;3.80;2.30;;;;;;;13.09;74.67;94218.06;5127213;28;20834;-81
2023/05/09 00:25:32;;;;;;;4.25;2.42;;;;;;;13.07;74.81;94211.44;5127368;28;20024;-81
2023/05/09 00:27:57;;;;;;;3.42;2.47;;;;;;;13.03;74.51;94204.06;5127224;28;20024;-81
2023/05/09 00:30:23;;;;;;;3.75;2.40;;;;;;;13.07;74.12;94204.22;5127068;28;20336;-81
2023/05/09 00:32:48;;;;;;;8.93;3.50;;;;;;;13.07;74.25;94206.09;5126835;28;20234;-81
2023/05/09 00:35:14;;;;;;;5.75;2.83;;;;;;;13.08;74.14;94210.34;5126974;28;20823;-81
2023/05/09 00:37:40;;;;;;;6.68;3.10;;;;;;;13.09;73.90;94203.88;5126789;28;20251;-81
2023/05/09 00:40:08;;;;;;;5.30;3.25;;;;;;;13.11;73.97;94209.69;5108626;28;20089;-81
2023/05/09 00:42:34;;;;;;;7.93;3.28;;;;;;;13.13;73.99;94202.16;5126823;28;20032;-80
2023/05/09 00:45:00;;;;;;;5.07;2.60;;;;;;;13.15;74.78;94210.66;5126584;28;20085;-81
2023/05/09 00:47:27;;;;;;;5.78;3.47;;;;;;;13.13;74.31;94212.88;5108776;28;20031;-81
2023/05/09 00:49:52;;;;;;;6.22;3.28;;;;;;;13.11;74.31;94209.69;5126649;28;20258;-81
2023/05/09 00:52:22;;;;;;;5.47;2.97;;;;;;;13.13;74.38;94215.53;5126553;28;20053;-81
2023/05/09 00:54:50;;;;;;;6.57;3.28;;;;;;;13.14;74.71;94209.06;5126605;28;20034;-81
2023/05/09 00:57:16;;;;;;;4.07;2.90;;;;;;;13.15;74.83;94208.75;5126465;28;20251;-81
2023/05/09 00:59:41;;;;;;;4.82;3.10;;;;;;;13.19;75.91;94206.22;5126508;28;20073;-81
2023/05/09 01:02:07;;;;;;;5.88;3.00;;;;;;;13.21;76.67;94215.50;5107945;28;20051;-81
2023/05/09 01:04:33;;;;;;;5.90;3.10;;;;;;;13.20;76.59;94221.16;5125276;28;20083;-81
2023/05/09 01:07:05;;;;;;;13.82;3.45;;;;;;;13.20;76.76;94215.81;5125133;28;20027;-81
2023/05/09 01:09:46;;;;;;;4.20;2.95;;;;;;;13.19;76.47;94212.38;5124691;28;20032;-81
2023/05/09 01:12:40;;;;;;;7.68;3.17;;;;;;;13.20;76.25;94207.78;5125114;28;20073;-81
2023/05/09 01:15:06;;;;;;;5.00;3.38;;;;;;;13.15;75.85;94210.66;5125154;28;20016;-81
2023/05/09 01:17:47;;;;;;;4.72;3.35;;;;;;;13.14;74.30;94209.06;5125124;28;20039;-81
2023/05/09 01:20:34;;;;;;;6.90;3.60;;;;;;;13.09;74.46;94206.56;5124945;28;20030;-81
2023/05/09 01:23:12;;;;;;;5.47;3.20;;;;;;;13.04;74.37;94204.84;5124868;28;20084;-80
2023/05/09 01:25:40;;;;;;;6.78;3.35;;;;;;;13.04;74.25;94202.16;5124967;28;20034;-80
2023/05/09 01:28:17;;;;;;;4.20;2.97;;;;;;;13.04;73.96;94207.50;5124897;28;20042;-80
2023/05/09 01:30:45;;;;;;;3.88;2.65;;;;;;;13.02;73.24;94202.47;5124732;28;20055;-80
2023/05/09 01:33:16;;;;;;;4.95;3.08;;;;;;;12.96;73.22;94202.97;5124803;28;20039;-80
2023/05/09 01:35:45;;;;;;;6.30;2.70;;;;;;;12.95;73.02;94204.09;5124790;28;20042;-80
2023/05/09 01:38:17;;;;;;;4.88;3.03;;;;;;;12.91;73.56;94206.63;5124751;28;20026;-80
2023/05/09 01:40:47;;;;;;;6.32;3.47;;;;;;;12.88;73.41;94201.09;5124837;28;20125;-80
2023/05/09 01:43:15;;;;;;;6.07;3.35;;;;;;;12.86;73.42;94204.09;5106299;28;20034;-80
2023/05/09 01:45:42;;;;;;;5.95;3.30;;;;;;;12.84;73.28;94196.41;5124786;28;20226;-80
2023/05/09 01:48:09;;;;;;;6.80;3.13;;;;;;;12.84;73.26;94203.63;5124585;28;20309;-80
2023/05/09 01:50:38;;;;;;;6.45;2.90;;;;;;;12.84;73.50;94203.63;5106443;28;20068;-80
2023/05/09 01:53:05;;;;;;;8.05;3.75;;;;;;;12.85;73.45;94205.22;5106155;28;20019;-79
2023/05/09 01:55:33;;;;;;;5.38;3.42;;;;;;;12.85;73.60;94207.88;5124384;28;20019;-80
2023/05/09 01:58:00;;;;;;;5.40;3.47;;;;;;;12.87;73.61;94208.34;5124537;28;20018;-80
2023/05/09 02:00:26;;;;;;;5.40;3.58;;;;;;;12.88;73.81;94209.13;5124699;28;20186;-80
2023/05/09 02:02:52;;;;;;;4.68;3.30;;;;;;;12.87;73.85;94202.22;5075793;28;1383535;-80
2023/05/09 02:05:19;;;;;;;6.47;4.20;;;;;;;12.83;74.02;94205.53;5125169;28;20383;-80
2023/05/09 02:07:47;;;;;;;5.93;3.60;;;;;;;12.82;74.41;94201.28;5125455;28;20072;-80
2023/05/09 02:10:14;;;;;;;4.38;2.92;;;;;;;12.82;74.67;94203.97;5107135;28;20024;-80
2023/05/09 02:12:40;;;;;;;4.38;3.22;;;;;;;12.82;74.55;94205.84;5125239;28;20043;-80
2023/05/09 02:15:06;;;;;;;6.78;3.38;;;;;;;12.80;74.15;94208.84;5124898;28;20046;-79
2023/05/09 02:17:32;;;;;;;4.53;3.33;;;;;;;12.76;74.38;94201.75;5124911;28;20225;-80
2023/05/09 02:19:57;;;;;;;6.40;3.28;;;;;;;12.78;74.12;94196.88;5124728;28;20015;-80
2023/05/09 02:22:23;;;;;;;6.55;4.30;;;;;;;12.84;74.14;94198.28;5124281;28;20030;-80
2023/05/09 02:24:49;;;;;;;6.15;3.47;;;;;;;12.87;74.11;94203.00;5106253;28;20271;-80
2023/05/09 02:27:15;;;;;;;7.53;3.58;;;;;;;12.91;74.13;94205.84;5124776;28;20060;-80
2023/05/09 02:29:47;;;;;;;5.28;3.63;;;;;;;12.92;74.16;94197.47;5124688;28;20046;-80
2023/05/09 02:32:21;;;;;;;9.05;3.88;;;;;;;12.93;74.70;94188.34;5124705;28;20016;-80
2023/05/09 02:34:48;;;;;;;5.65;3.45;;;;;;;12.93;74.87;94201.72;5124797;28;20031;-81
2023/05/09 02:37:15;;;;;;;8.05;3.08;;;;;;;12.94;75.07;94189.91;5124566;28;20213;-80
2023/05/09 02:39:40;;;;;;;6.47;3.30;;;;;;;12.94;75.48;94200.63;5106611;28;20022;-80
2023/05/09 02:42:08;;;;;;;6.75;3.88;;;;;;;12.93;75.88;94191.03;5124510;28;20015;-80
2023/05/09 02:44:35;;;;;;;7.05;3.97;;;;;;;12.93;75.91;94199.06;5124525;28;20019;-80
2023/05/09 02:47:01;;;;;;;7.03;4.25;;;;;;;12.92;75.68;94205.50;5124550;28;20057;-80
2023/05/09 02:49:27;;;;;;;5.72;3.85;;;;;;;12.93;75.50;94199.06;5124574;28;20043;-80
2023/05/09 02:51:52;;;;;;;7.00;3.45;;;;;;;12.95;75.51;94196.06;5124569;28;20027;-80
2023/05/09 02:54:18;;;;;;;6.05;4.35;;;;;;;12.93;75.54;94199.06;5124499;28;20170;-81
2023/05/09 02:56:43;;;;;;;6.85;3.88;;;;;;;12.92;75.39;94200.16;5106298;28;20020;-81
2023/05/09 02:59:09;;;;;;;6.25;4.00;;;;;;;12.91;75.34;94198.59;5124221;28;20026;-81
2023/05/09 03:01:34;;;;;;;4.35;3.40;;;;;;;12.95;75.29;94206.78;5123998;28;20318;-80
2023/05/09 03:04:00;;;;;;;6.60;3.95;;;;;;;12.96;75.11;94209.09;5105904;28;20108;-80
2023/05/09 03:06:25;;;;;;;7.75;3.92;;;;;;;12.97;75.06;94213.38;5106106;28;20027;-80
2023/05/09 03:08:51;;;;;;;10.13;3.67;;;;;;;13.00;74.88;94210.03;5123980;28;20023;-81
2023/05/09 03:11:16;;;;;;;6.20;3.83;;;;;;;13.00;74.94;94204.69;5123542;28;20015;-80
2023/05/09 03:13:42;;;;;;;5.15;3.58;;;;;;;13.05;74.67;94209.88;5124027;28;20086;-81
2023/05/09 03:16:07;;;;;;;7.70;3.88;;;;;;;13.07;74.71;94216.78;5105736;28;20027;-80
2023/05/09 03:18:35;;;;;;;5.80;4.40;;;;;;;13.07;74.78;94212.25;5124067;28;20028;-81
2023/05/09 03:21:00;;;;;;;10.02;4.05;;;;;;;13.07;74.47;94214.13;5123941;28;20094;-80
2023/05/09 03:23:26;;;;;;;9.68;4.00;;;;;;;13.05;74.79;94223.25;5124022;28;20073;-80
2023/05/09 03:25:51;;;;;;;6.90;3.22;;;;;;;13.10;74.21;94232.22;5124019;28;20333;-80
2023/05/09 03:28:17;;;;;;;9.05;4.22;;;;;;;13.11;74.55;94231.09;5123735;28;20072;-80
2023/05/09 03:30:42;;;;;;;7.63;3.50;;;;;;;13.10;73.71;94234.91;5123894;28;20019;-80
2023/05/09 03:33:07;;;;;;;6.53;3.17;;;;;;;13.10;74.20;94235.69;5123651;28;20034;-80
2023/05/09 03:35:33;;;;;;;7.57;3.65;;;;;;;13.10;74.21;94235.69;5123149;28;20248;-80
2023/05/09 03:37:58;;;;;;;7.80;3.80;;;;;;;13.15;74.15;94240.09;5123795;28;20369;-80
2023/05/09 03:40:24;;;;;;;7.57;4.00;;;;;;;13.14;74.18;94244.63;5123987;28;20221;-80
2023/05/09 03:42:49;;;;;;;9.80;3.92;;;;;;;13.15;74.17;94246.22;5105519;28;20027;-80
2023/05/09 03:45:15;;;;;;;8.98;4.47;;;;;;;13.15;74.37;94248.13;5139500;28;20027;-80
2023/05/09 03:47:40;;;;;;;6.20;4.20;;;;;;;13.14;74.49;94244.63;5123550;28;20034;-81
2023/05/09 03:50:06;;;;;;;9.55;5.20;;;;;;;13.12;74.26;94244.16;5123633;28;20086;-80
2023/05/09 03:52:32;;;;;;;10.93;4.82;;;;;;;13.10;74.33;94249.06;5123427;28;20024;-80
2023/05/09 03:54:57;;;;;;;14.55;4.72;;;;;;;13.08;74.54;94250.50;5123282;28;20034;-80
2023/05/09 03:57:23;;;;;;;12.90;4.80;;;;;;;13.07;74.80;94257.72;5123383;28;20090;-81
2023/05/09 03:59:48;;;;;;;6.38;4.80;;;;;;;13.02;75.04;94260.56;5123437;28;20035;-80
2023/05/09 04:02:14;;;;;;;12.77;5.10;;;;;;;13.03;75.00;94256.81;5123299;28;20047;-80
2023/05/09 04:04:39;;;;;;;13.15;5.72;;;;;;;13.05;74.80;94260.72;5123431;28;20035;-80
2023/05/09 04:07:05;;;;;;;7.03;4.32;;;;;;;13.07;74.84;94257.72;5123430;28;20026;-80
2023/05/09 04:09:31;;;;;;;10.10;5.25;;;;;;;13.15;74.63;94264.97;5123430;28;20061;-80
2023/05/09 04:11:56;;;;;;;5.50;4.13;;;;;;;13.18;74.53;94258.16;5123493;28;20031;-80
2023/05/09 04:14:22;;;;;;;6.97;4.43;;;;;;;13.21;74.45;94260.22;5123402;28;20341;-80
2023/05/09 04:16:47;;;;;;;8.55;5.25;;;;;;;13.23;74.41;94252.66;5123122;28;20318;-80
2023/05/09 04:19:13;;;;;;;7.90;4.47;;;;;;;13.28;74.17;94252.47;5123287;28;20020;-81
2023/05/09 04:21:38;;;;;;;7.15;4.15;;;;;;;13.33;73.89;94257.69;5122998;28;20246;-80
2023/05/09 04:24:04;;;;;;;7.10;4.13;;;;;;;13.37;73.58;94255.94;5123308;28;20034;-80
2023/05/09 04:26:30;;;;;;;8.07;3.90;;;;;;;13.38;72.85;94260.19;5123108;28;20069;-80
2023/05/09 04:28:55;;;;;;;5.82;3.90;;;;;;;13.41;72.56;94253.41;5123337;28;20099;-80
2023/05/09 04:31:21;;;;;;;5.35;3.70;;;;;;;13.46;72.59;94252.44;5123099;28;20034;-80
2023/05/09 04:33:47;;;;;;;8.23;3.85;;;;;;;13.49;71.83;94252.56;5122822;28;20341;-80
2023/05/09 04:36:12;;;;;;;8.77;3.63;;;;;;;13.53;71.76;94256.19;5123212;28;20024;-80
2023/05/09 04:38:38;;;;;;;7.50;3.55;;;;;;;13.58;71.11;94250.66;5122838;28;20015;-80
2023/05/09 04:41:03;;;;;;;10.80;4.57;;;;;;;13.64;70.52;94267.34;5123040;28;20336;-80
2023/05/09 04:43:30;;;;;;;13.88;3.50;;;;;;;13.70;70.37;94258.03;5122776;28;20054;-80
2023/05/09 04:45:55;;;;;;;5.22;2.75;;;;;;;13.77;69.38;94262.88;5126322;28;20043;-80
2023/05/09 04:48:20;;;;;;;10.55;3.67;;;;;;;13.83;68.73;94254.31;5126619;28;20027;-80
2023/05/09 04:50:47;;;;;;;5.00;3.28;;;;;;;13.89;68.44;94259.50;5126701;28;20042;-80
2023/05/09 04:53:13;;;;;;;9.30;3.55;;;;;;;13.97;68.25;94266.72;5126641;28;20028;-80
2023/05/09 04:55:38;;;;;;;20.05;3.92;;;;;;;14.00;67.75;94264.16;5126711;28;20049;-80
2023/05/09 04:58:04;;;;;;;10.35;3.70;;;;;;;14.07;67.89;94263.66;5126564;28;20023;-80
2023/05/09 05:00:30;;;;;;;9.25;3.67;;;;;;;14.15;67.58;94262.03;5126589;28;20255;-80
2023/05/09 05:02:55;;;;;;;7.55;3.33;;;;;;;14.23;67.55;94263.88;5126412;28;20410;-80
2023/05/09 05:05:21;;;;;;;10.20;4.22;;;;;;;14.31;66.45;94246.94;5126611;28;20054;-80
2023/05/09 05:07:46;;;;;;;8.93;4.20;;;;;;;14.33;66.20;94246.59;5108643;28;20266;-80
2023/05/09 05:10:12;;;;;;;14.25;3.97;;;;;;;14.34;66.41;94250.84;5126209;28;20024;-81
2023/05/09 05:12:37;;;;;;;9.02;4.00;;;;;;;14.42;65.85;94255.38;5126284;28;20309;-80
2023/05/09 05:15:03;;;;;;;5.80;3.13;;;;;;;14.43;65.60;94248.88;5127026;28;20023;-80
2023/05/09 05:17:29;;;;;;;12.52;3.58;;;;;;;14.52;65.98;94254.97;5126161;28;20047;-80
2023/05/09 05:19:54;;;;;;;6.40;4.07;;;;;;;14.63;65.86;94255.38;5126252;28;20022;-80
2023/05/09 05:22:20;;;;;;;8.70;3.00;;;;;;;14.66;65.07;94253.97;5107675;28;20019;-79
2023/05/09 05:24:46;;;;;;;5.75;3.10;;;;;;;14.70;64.48;94255.66;5125653;28;20020;-80
2023/05/09 05:27:11;;;;;;;10.70;2.72;;;;;;;14.73;64.55;94254.19;5125944;28;20324;-80
2023/05/09 05:29:36;;;;;;;6.03;3.10;;;;;;;14.78;64.30;94256.69;5125696;28;20024;-80
2023/05/09 05:32:02;;;;;;;7.55;3.80;;;;;;;14.79;64.12;94252.88;5126123;28;20016;-80
2023/05/09 05:34:28;;;;;;;7.47;3.75;;;;;;;14.90;64.28;94262.09;5126159;28;20023;-80
2023/05/09 05:36:53;;;;;;;7.43;2.90;;;;;;;14.98;63.78;94263.91;5126127;28;20217;-80
2023/05/09 05:39:18;;;;;;;12.43;5.28;;;;;;;15.07;63.61;94263.06;5125647;28;20016;-80
2023/05/09 05:41:44;;;;;;;11.27;5.70;;;;;;;15.13;63.23;94262.50;5125995;28;20052;-80
2023/05/09 05:44:09;;;;;;;9.05;5.95;;;;;;;15.20;63.12;94261.94;5107472;28;20020;-80
2023/05/09 05:46:35;;;;;;;6.78;4.20;;;;;;;15.23;63.13;94258.63;5125857;28;20031;-81
2023/05/09 05:49:00;;;;;;;5.82;2.65;;;;;;;15.27;62.68;94270.25;5125721;28;20081;-80
2023/05/09 05:51:26;;;;;;;11.27;2.83;;;;;;;15.25;63.13;94261.75;5125706;28;20191;-80
2023/05/09 05:53:51;;;;;;;11.65;2.67;;;;;;;15.27;63.19;94267.56;5125410;28;20207;-80
2023/05/09 05:56:17;;;;;;;6.28;2.45;;;;;;;15.32;62.60;94267.34;5106065;28;20031;-81
2023/05/09 05:58:42;;;;;;;6.85;3.30;;;;;;;15.25;63.42;94270.59;5125491;28;20012;-80
2023/05/09 06:01:08;;;;;;;16.58;3.53;;;;;;;15.15;63.58;94273.69;5125193;28;20020;-80
2023/05/09 06:03:33;;;;;;;5.70;2.42;;;;;;;15.16;63.82;94272.59;5124937;28;20110;-79
2023/05/09 06:05:59;;;;;;;5.00;1.88;;;;;;;15.17;63.45;94263.41;5125110;28;20390;-80
2023/05/09 06:08:24;;;;;;;6.30;2.28;;;;;;;15.19;63.72;94268.44;5106841;28;20047;-79
2023/05/09 06:10:50;;;;;;;6.43;1.92;;;;;;;15.23;63.86;94266.69;5124969;28;20024;-80
2023/05/09 06:13:15;;;;;;;8.95;1.83;;;;;;;15.16;63.93;94272.59;5124809;28;20024;-80
2023/05/09 06:15:41;;;;;;;4.80;2.47;;;;;;;15.22;63.94;94270.47;5125302;28;20218;-80
2023/05/09 06:18:07;;;;;;;4.13;1.90;;;;;;;15.26;63.25;94266.00;5124869;28;20321;-80
2023/05/09 06:20:34;;;;;;;6.85;2.47;;;;;;;15.27;63.40;94272.94;5124795;28;20310;-80
2023/05/09 06:23:00;;;;;;;15.35;2.03;;;;;;;15.32;63.35;94267.34;5124850;28;20007;-80
2023/05/09 06:25:25;;;;;;;6.63;1.60;;;;;;;15.40;62.74;94265.69;5124701;28;20329;-81
2023/05/09 06:27:51;;;;;;;11.07;1.90;;;;;;;15.43;62.66;94265.81;5106637;28;20058;-80
2023/05/09 06:30:16;;;;;;;4.15;1.55;;;;;;;15.47;61.91;94271.31;5124648;28;20015;-81
2023/05/09 06:32:42;;;;;;;4.38;1.13;;;;;;;15.45;61.69;94274.31;5124780;28;20012;-81
2023/05/09 06:35:07;;;;;;;4.72;1.45;;;;;;;15.45;62.28;94270.88;5124386;28;20016;-80
2023/05/09 06:37:33;;;;;;;5.68;1.48;;;;;;;15.41;62.06;94269.97;5124456;28;20031;-81
2023/05/09 06:39:58;;;;;;;4.85;1.65;;;;;;;15.40;61.88;94269.16;5124114;28;20305;-80
2023/05/09 06:42:24;;;;;;;9.73;1.30;;;;;;;15.38;61.93;94271.38;5124345;28;20024;-81
2023/05/09 06:44:49;;;;;;;1.50;0.88;;;;;;;15.41;62.00;94273.44;5124149;28;20046;-81
2023/05/09 06:47:14;;;;;;;2.88;1.20;;;;;;;15.48;61.08;94277.47;5124101;28;20027;-80
2023/05/09 06:49:40;;;;;;;5.97;1.48;;;;;;;15.59;60.55;94260.59;5124111;28;20265;-80
2023/05/09 06:52:06;;;;;;;4.28;0.90;;;;;;;15.67;59.97;94266.16;5123939;28;20032;-80
2023/05/09 06:54:31;;;;;;;10.23;1.25;;;;;;;15.73;59.66;94265.63;5105969;28;20032;-80
2023/05/09 06:56:57;;;;;;;6.07;0.90;;;;;;;15.78;59.74;94260.06;5124153;28;20059;-80
2023/05/09 06:59:22;;;;;;;3.00;1.00;;;;;;;15.84;60.17;94264.09;5123879;28;20133;-80
2023/05/09 07:01:48;;;;;;;2.55;1.15;;;;;;;15.89;59.68;94267.66;5123983;28;20059;-80
2023/05/09 07:04:13;;;;;;;3.85;0.93;;;;;;;16.01;59.61;94267.66;5124070;28;20047;-80
2023/05/09 07:06:39;;;;;;;4.32;1.75;;;;;;;16.07;59.38;94262.84;5123693;28;20090;-80
2023/05/09 07:09:04;;;;;;;5.82;0.88;;;;;;;16.13;59.70;94258.81;5123592;28;20217;-80
2023/05/09 07:11:36;;;;;;;19.30;1.50;;;;;;;16.18;59.27;94255.88;5123866;28;20024;-80
2023/05/09 07:14:03;;;;;;;5.63;1.20;;;;;;;16.19;58.85;94260.16;5123867;28;20080;-81
2023/05/09 07:16:28;;;;;;;5.35;1.30;;;;;;;16.20;58.66;94265.19;5105553;28;20027;-80
2023/05/09 07:18:54;;;;;;;4.93;2.10;;;;;;;16.24;58.90;94259.91;5123746;28;20068;-80
2023/05/09 07:21:20;;;;;;;8.35;2.00;;;;;;;16.24;58.81;94260.72;5123926;28;20019;-80
2023/05/09 07:23:45;;;;;;;12.15;1.60;;;;;;;16.23;58.56;94267.19;5123657;28;20046;-80
2023/05/09 07:26:11;;;;;;;6.65;3.17;;;;;;;16.13;58.92;94264.19;5123658;28;20020;-80
2023/05/09 07:28:36;;;;;;;2.88;1.77;;;;;;;16.07;59.47;94265.53;5123765;28;20029;-81
2023/05/09 07:31:02;;;;;;;3.72;1.75;;;;;;;16.03;59.62;94263.50;5123507;28;20271;-82
2023/05/09 07:33:27;;;;;;;2.70;1.60;;;;;;;15.98;58.70;94261.06;5123544;28;20020;-80
2023/05/09 07:35:53;;;;;;;3.35;1.38;;;;;;;15.87;58.34;94251.09;5123453;28;20027;-80
2023/05/09 07:38:18;;;;;;;2.65;1.30;;;;;;;15.70;58.14;94268.19;5123362;28;20046;-80
2023/05/09 07:40:44;;;;;;;6.38;1.88;;;;;;;15.55;58.67;94272.31;5123247;28;20043;-80
2023/05/09 07:43:09;;;;;;;2.63;1.20;;;;;;;15.54;58.99;94262.69;5123281;28;20019;-80
2023/05/09 07:45:35;;;;;;;3.10;1.63;;;;;;;15.51;58.82;94272.22;5123328;28;20092;-80
2023/05/09 07:48:00;;;;;;;2.53;1.17;;;;;;;15.54;58.83;94274.22;5105240;28;20037;-80
2023/05/09 07:50:26;;;;;;;2.72;1.45;;;;;;;15.53;58.15;94275.34;5105263;28;20095;-80
2023/05/09 07:52:51;;;;;;;2.25;1.10;;;;;;;15.58;58.62;94272.44;5123279;28;20027;-80
2023/05/09 07:55:17;;;;;;;3.25;1.40;;;;;;;15.70;58.46;94268.97;5123057;28;20023;-81
2023/05/09 07:57:43;;;;;;;2.50;1.15;;;;;;;15.82;57.93;94260.94;5123176;28;20026;-81
2023/05/09 08:00:09;;;;;;;3.85;1.20;;;;;;;15.98;57.88;94262.97;5123241;28;20111;-81
2023/05/09 08:02:35;;;;;;;3.00;1.35;;;;;;;16.08;57.09;94259.03;5123100;28;20149;-80
2023/05/09 08:05:00;;;;;;;2.42;1.48;;;;;;;16.29;56.50;94258.91;5122985;28;20019;-81
2023/05/09 08:07:26;;;;;;;4.47;1.45;;;;;;;16.42;56.29;94260.44;5123232;28;20028;-80
2023/05/09 08:09:51;;;;;;;6.45;1.10;;;;;;;16.52;55.33;94251.09;5122713;28;20024;-80
2023/05/09 08:12:17;;;;;;;5.00;1.80;;;;;;;16.64;54.62;94254.53;5123114;28;20039;-81
2023/05/09 08:14:42;;;;;;;3.38;1.50;;;;;;;16.76;54.05;94255.63;5123182;28;20030;-80
2023/05/09 08:17:08;;;;;;;3.75;1.33;;;;;;;16.79;53.51;94258.44;5123053;28;20057;-80
2023/05/09 08:19:33;;;;;;;3.05;1.67;;;;;;;16.88;52.97;94257.53;5123775;28;20015;-81
2023/05/09 08:21:59;;;;;;;3.55;1.35;;;;;;;16.98;52.92;94255.13;5127068;28;20023;-81
2023/05/09 08:24:25;;;;;;;5.78;1.33;;;;;;;17.11;52.79;94253.16;5127240;28;20256;-81
2023/05/09 08:26:50;;;;;;;2.88;1.38;;;;;;;17.19;52.89;94254.91;5127042;28;20019;-81
2023/05/09 08:29:16;;;;;;;5.03;1.80;;;;;;;17.28;52.89;94257.44;5126902;28;20214;-80
2023/05/09 08:31:42;;;;;;;7.28;1.48;;;;;;;17.31;52.64;94262.13;5126837;28;20027;-80
2023/05/09 08:34:07;;;;;;;4.55;1.38;;;;;;;17.22;52.93;94254.22;5126790;28;20086;-80
2023/05/09 08:36:33;;;;;;;4.80;1.80;;;;;;;17.14;53.00;94259.78;5126984;28;20020;-80
2023/05/09 08:38:58;;;;;;;6.88;1.85;;;;;;;17.17;53.25;94265.22;5126630;28;20012;-81
2023/05/09 08:41:26;;;;;;;4.80;1.50;;;;;;;17.30;52.85;94260.59;5126815;28;20137;-81
2023/05/09 08:43:53;;;;;;;2.60;1.60;;;;;;;17.32;53.18;94262.91;5126825;28;20253;-80
2023/05/09 08:46:25;;;;;;;5.85;1.17;;;;;;;17.34;53.48;94256.06;5126761;28;20252;-80
2023/05/09 08:48:51;;;;;;;;;;;;;;;17.41;54.66;94256.25;5108954;28;20032;-80
2023/05/09 08:51:16;;;;;;;2.30;0.80;;;;;;;17.45;53.89;94259.81;5126515;28;20006;-81
2023/05/09 08:53:42;;;;;;;4.35;1.13;;;;;;;17.52;53.92;94255.72;5126188;28;20019;-80
2023/05/09 08:56:08;;;;;;;1.58;0.90;;;;;;;17.52;53.62;94261.13;5125904;28;20091;-80
2023/05/09 08:58:34;;;;;;;1.20;0.80;;;;;;;17.43;52.29;94253.97;5108282;28;20030;-81
2023/05/09 09:01:08;;;;;;;4.05;0.88;;;;;;;17.39;52.49;94261.19;5126413;28;20031;-81
2023/05/09 09:03:36;;;;;;;1.17;0.70;;;;;;;17.34;53.22;94264.16;5126281;28;20107;-80
2023/05/09 09:06:02;;;;;;;4.65;0.90;;;;;;;17.30;53.15;94255.19;5126345;28;20038;-81
2023/05/09 09:08:28;;;;;;;1.77;0.90;;;;;;;17.22;52.76;94253.44;5126703;28;20036;-80
2023/05/09 09:10:54;;;;;;;1.40;0.80;;;;;;;17.24;53.06;94260.06;5126563;28;20094;-81
2023/05/09 09:13:20;;;;;;;8.85;0.90;;;;;;;17.14;53.25;94254.38;5126216;28;20314;-81
2023/05/09 09:15:47;;;;;;;13.90;1.40;;;;;;;17.06;53.16;94256.09;5126153;28;20114;-81
2023/05/09 09:18:21;;;;;;;2.38;1.25;;;;;;;16.97;53.38;94258.94;5126192;28;20031;-81
2023/05/09 09:20:51;;;;;;;11.88;1.40;;;;;;;16.86;54.22;94263.25;5125999;28;20024;-81
2023/05/09 09:23:19;;;;;;;4.78;1.20;;;;;;;16.73;54.48;94259.00;5125954;28;20067;-81
2023/05/09 09:25:46;;;;;;;4.57;1.05;;;;;;;16.67;54.51;94260.38;5125933;28;20016;-81
2023/05/09 09:28:12;;;;;;;3.80;1.40;;;;;;;16.54;54.66;94249.63;5125899;28;20015;-80
2023/05/09 09:30:43;;;;;;;3.33;0.98;;;;;;;16.43;54.75;94254.72;5125432;28;20023;-80
2023/05/09 09:33:09;;;;;;;2.45;1.20;;;;;;;16.25;55.02;94256.88;5125849;28;20020;-80
2023/05/09 09:35:38;;;;;;;5.70;1.20;;;;;;;16.18;55.93;94255.88;5125786;28;20047;-80
2023/05/09 09:38:05;;;;;;;9.95;1.52;;;;;;;16.03;56.07;94271.56;5125942;28;20030;-80
2023/05/09 09:40:30;;;;;;;5.22;2.53;;;;;;;15.91;56.53;94257.38;5107582;28;20090;-80
2023/05/09 09:42:56;;;;;;;6.15;1.20;;;;;;;15.93;56.67;94261.28;5125656;28;20218;-81
2023/05/09 09:45:21;;;;;;;2.58;1.10;;;;;;;15.93;56.78;94263.19;5125752;28;20193;-80
2023/05/09 09:47:48;;;;;;;1.60;0.93;;;;;;;15.88;57.19;94263.44;5125551;28;20022;-80
2023/05/09 09:50:19;;;;;;;4.43;1.35;;;;;;;15.81;57.83;94259.41;5125394;28;20027;-80
2023/05/09 09:52:54;;;;;;;1.67;0.98;;;;;;;15.76;57.89;94262.28;5125437;28;20336;-80
2023/05/09 09:55:21;;;;;;;3.28;1.58;;;;;;;15.72;58.13;94264.09;5125227;28;20020;-80
2023/05/09 09:57:47;;;;;;;8.38;1.90;;;;;;;15.62;58.07;94267.97;5125547;28;20088;-80
2023/05/09 10:00:17;;;;;;;3.97;1.80;;;;;;;15.70;58.01;94268.97;5125342;28;20016;-81
2023/05/09 10:03:06;;;;;;;2.45;1.23;;;;;;;15.68;57.83;94267.75;5124988;28;20106;-80
2023/05/09 10:05:33;;;;;;;4.88;1.58;;;;;;;15.60;57.65;94264.03;5124451;28;20031;-80
2023/05/09 10:08:09;;;;;;;10.32;3.20;;;;;;;15.63;57.94;94258.00;5124991;28;20045;-80
2023/05/09 10:10:36;;;;;;;2.45;1.35;;;;;;;15.67;57.55;94256.19;5106837;28;20217;-80
2023/05/09 10:13:10;;;;;;;8.88;1.65;;;;;;;15.76;57.79;94256.91;5124919;28;20015;-80
2023/05/09 10:15:36;;;;;;;3.97;1.50;;;;;;;15.84;57.85;94247.19;5124800;28;20061;-81
2023/05/09 10:18:03;;;;;;;3.22;1.63;;;;;;;15.96;57.44;94249.09;5124487;28;20016;-81
2023/05/09 10:20:33;;;;;;;3.72;1.45;;;;;;;15.99;57.66;94249.19;5124813;28;20039;-81
2023/05/09 10:23:01;;;;;;;10.68;1.85;;;;;;;16.10;58.25;94252.22;5124544;28;20086;-80
2023/05/09 10:25:32;;;;;;;6.57;1.88;;;;;;;16.27;58.03;94259.22;5124863;28;20023;-80
2023/05/09 10:27:59;;;;;;;5.82;2.10;;;;;;;16.33;57.91;94249.81;5124929;28;20031;-81
2023/05/09 10:30:32;;;;;;;9.10;1.77;;;;;;;16.38;57.51;94243.41;5124751;28;20027;-80
2023/05/09 10:33:09;;;;;;;2.28;1.50;;;;;;;16.49;57.64;94247.19;5106540;28;20214;-80
2023/05/09 10:35:38;;;;;;;7.57;1.83;;;;;;;16.56;57.42;94247.38;5124580;28;20015;-80
2023/05/09 10:38:06;;;;;;;5.75;1.85;;;;;;;16.61;56.75;94247.16;5124506;28;20024;-81
2023/05/09 10:40:33;;;;;;;5.80;2.58;;;;;;;16.62;56.27;94251.41;5124267;28;20251;-81
2023/05/09 10:42:58;;;;;;;2.55;1.35;;;;;;;16.71;56.51;94253.16;5123730;28;20061;-81
2023/05/09 10:45:25;;;;;;;4.07;1.88;;;;;;;16.75;56.17;94246.78;5106258;28;20307;-81
2023/05/09 10:47:52;;;;;;;2.67;1.20;;;;;;;16.73;55.62;94253.63;5124382;28;20094;-81
2023/05/09 10:50:20;;;;;;;3.47;1.80;;;;;;;16.74;55.68;94258.66;5124174;28;20023;-81
2023/05/09 10:53:05;;;;;;;6.47;2.30;;;;;;;16.84;55.85;94249.34;5124287;28;20026;-81
2023/05/09 10:55:51;;;;;;;7.95;2.25;;;;;;;16.92;56.17;94248.41;5124129;28;20023;-81
2023/05/09 10:58:23;;;;;;;7.75;2.30;;;;;;;16.96;55.73;94246.59;5124224;28;20019;-81
2023/05/09 11:00:49;;;;;;;;;;;;;;;17.07;55.03;94241.50;5124325;28;20102;-81
2023/05/09 11:03:17;;;;;;;4.40;2.38;;;;;;;16.98;54.60;94235.50;5123893;28;19919;-81
2023/05/09 11:05:44;;;;;;;6.90;2.53;;;;;;;17.05;55.05;94238.38;5124162;28;20019;-81
2023/05/09 11:08:20;;;;;;;8.85;2.10;;;;;;;17.16;55.12;94234.06;5123925;28;20026;-81
2023/05/09 11:10:46;;;;;;;4.32;2.33;;;;;;;17.18;55.67;94241.78;5123844;28;20076;-81
2023/05/09 11:13:11;;;;;;;8.13;2.05;;;;;;;17.26;55.11;94238.16;5123639;28;20023;-81
2023/05/09 11:16:09;;;;;;;5.28;2.72;;;;;;;17.35;54.88;94236.06;5123913;28;20039;-81
2023/05/09 11:18:50;;;;;;;8.27;2.67;;;;;;;17.47;54.82;94237.13;5123656;28;20327;-81
2023/05/09 11:21:15;;;;;;;3.42;2.10;;;;;;;17.56;54.08;94248.50;5123764;28;20020;-81
2023/05/09 11:23:41;;;;;;;5.05;2.30;;;;;;;17.67;53.57;94241.47;5123563;28;20022;-81
2023/05/09 11:26:07;;;;;;;9.68;2.60;;;;;;;17.65;52.72;94244.50;5123486;28;20200;-81
2023/05/09 11:28:37;;;;;;;6.00;2.90;;;;;;;17.63;53.49;94243.31;5123457;28;20100;-81
2023/05/09 11:31:17;;;;;;;9.35;2.60;;;;;;;17.71;53.27;94241.53;5123297;28;20086;-81
2023/05/09 11:33:45;;;;;;;4.38;2.20;;;;;;;17.75;52.91;94245.13;5123391;28;20032;-81